sensor_id;sensor_type;location;lat;lon;timestamp;P1;durP1;ratioP1;P2;durP2;ratioP2
19551;SDS011;9921;47.186;9.778;2022-09-03T00:02:30;0.00;;;0.00;;
19551;SDS011;9921;47.186;9.778;2022-09-03T00:05:04;0.00;;;0.00;;
19551;SDS011;9921;47.186;9.778;2022-09-03T00:07:41;0.00;;;0.00;;
19551;SDS011;9921;47.186;9.778;2022-09-03T00:10:14;0.00;;;0.00;;
19551;SDS011;9921;47.186;9.778;2022-09-03T00:12:46;0.00;;;0.00;;
19551;SDS011;9921;47.186;9.778;2022-09-03T00:15:14;0.00;;;0.00;;
19551;SDS011;9921;47.186;9.778;2022-09-03T00:17:44;0.00;;;0.00;;
19551;SDS011;9921;47.186;9.778;2022-09-03T00:20:16;0.00;;;0.00;;
19551;SDS011;9921;47.186;9.778;2022-09-03T00:22:49;0.00;;;0.00;;
19551;SDS011;9921;47.186;9.778;2022-09-03T00:25:20;0.00;;;0.00;;
19551;SDS011;9921;47.186;9.778;2022-09-03T00:27:52;0.00;;;0.00;;
19551;SDS011;9921;47.186;9.778;2022-09-03T00:30:22;0.00;;;0.00;;
19551;SDS011;9921;47.186;9.778;2022-09-03T00:32:53;0.00;;;0.00;;
19551;SDS011;9921;47.186;9.778;2022-09-03T00:35:26;0.00;;;0.00;;
19551;SDS011;9921;47.186;9.778;2022-09-03T00:37:58;0.00;;;0.00;;
19551;SDS011;9921;47.186;9.778;2022-09-03T00:40:35;0.00;;;0.00;;
19551;SDS011;9921;47.186;9.778;2022-09-03T00:43:12;0.00;;;0.00;;
19551;SDS011;9921;47.186;9.778;2022-09-03T00:45:48;0.00;;;0.00;;
19551;SDS011;9921;47.186;9.778;2022-09-03T00:48:28;0.00;;;0.00;;
19551;SDS011;9921;47.186;9.778;2022-09-03T00:51:01;0.00;;;0.00;;
19551;SDS011;9921;47.186;9.778;2022-09-03T00:53:42;0.00;;;0.00;;
19551;SDS011;9921;47.186;9.778;2022-09-03T00:56:26;0.00;;;0.00;;
19551;SDS011;9921;47.186;9.778;2022-09-03T00:59:11;0.00;;;0.00;;
19551;SDS011;9921;47.186;9.778;2022-09-03T01:01:49;0.00;;;0.00;;
19551;SDS011;9921;47.186;9.778;2022-09-03T01:04:32;0.00;;;0.00;;
19551;SDS011;9921;47.186;9.778;2022-09-03T01:07:11;0.00;;;0.00;;
19551;SDS011;9921;47.186;9.778;2022-09-03T01:09:48;0.00;;;0.00;;
19551;SDS011;9921;47.186;9.778;2022-09-03T01:12:21;0.00;;;0.00;;
19551;SDS011;9921;47.186;9.778;2022-09-03T01:15:01;0.00;;;0.00;;
19551;SDS011;9921;47.186;9.778;2022-09-03T01:17:35;0.00;;;0.00;;
19551;SDS011;9921;47.186;9.778;2022-09-03T01:20:18;0.00;;;0.00;;
19551;SDS011;9921;47.186;9.778;2022-09-03T01:26:19;0.00;;;0.00;;
19551;SDS011;9921;47.186;9.778;2022-09-03T01:28:57;0.00;;;0.00;;
19551;SDS011;9921;47.186;9.778;2022-09-03T01:31:33;0.00;;;0.00;;
19551;SDS011;9921;47.186;9.778;2022-09-03T01:34:11;0.00;;;0.00;;
19551;SDS011;9921;47.186;9.778;2022-09-03T01:36:46;0.00;;;0.00;;
19551;SDS011;9921;47.186;9.778;2022-09-03T01:39:22;0.00;;;0.00;;
19551;SDS011;9921;47.186;9.778;2022-09-03T01:41:56;0.00;;;0.00;;
19551;SDS011;9921;47.186;9.778;2022-09-03T01:44:45;0.00;;;0.00;;
19551;SDS011;9921;47.186;9.778;2022-09-03T01:47:35;0.00;;;0.00;;
19551;SDS011;9921;47.186;9.778;2022-09-03T01:50:15;0.00;;;0.00;;
19551;SDS011;9921;47.186;9.778;2022-09-03T01:52:51;0.00;;;0.00;;
19551;SDS011;9921;47.186;9.778;2022-09-03T01:55:26;0.00;;;0.00;;
19551;SDS011;9921;47.186;9.778;2022-09-03T01:57:57;0.00;;;0.00;;
19551;SDS011;9921;47.186;9.778;2022-09-03T02:00:31;0.00;;;0.00;;
19551;SDS011;9921;47.186;9.778;2022-09-03T02:03:03;0.00;;;0.00;;
19551;SDS011;9921;47.186;9.778;2022-09-03T02:05:32;0.00;;;0.00;;
19551;SDS011;9921;47.186;9.778;2022-09-03T02:08:00;0.00;;;0.00;;
19551;SDS011;9921;47.186;9.778;2022-09-03T02:10:30;0.00;;;0.00;;
19551;SDS011;9921;47.186;9.778;2022-09-03T02:13:01;0.00;;;0.00;;
19551;SDS011;9921;47.186;9.778;2022-09-03T02:15:33;0.00;;;0.00;;
19551;SDS011;9921;47.186;9.778;2022-09-03T02:18:03;0.00;;;0.00;;
19551;SDS011;9921;47.186;9.778;2022-09-03T02:20:35;0.00;;;0.00;;
19551;SDS011;9921;47.186;9.778;2022-09-03T02:23:03;0.00;;;0.00;;
19551;SDS011;9921;47.186;9.778;2022-09-03T02:25:33;0.00;;;0.00;;
19551;SDS011;9921;47.186;9.778;2022-09-03T02:28:03;0.00;;;0.00;;
19551;SDS011;9921;47.186;9.778;2022-09-03T02:30:31;0.00;;;0.00;;
19551;SDS011;9921;47.186;9.778;2022-09-03T02:33:00;0.00;;;0.00;;
19551;SDS011;9921;47.186;9.778;2022-09-03T02:35:27;0.00;;;0.00;;
19551;SDS011;9921;47.186;9.778;2022-09-03T02:37:54;0.00;;;0.00;;
19551;SDS011;9921;47.186;9.778;2022-09-03T02:40:20;0.00;;;0.00;;
19551;SDS011;9921;47.186;9.778;2022-09-03T02:42:47;0.00;;;0.00;;
19551;SDS011;9921;47.186;9.778;2022-09-03T02:45:18;0.00;;;0.00;;
19551;SDS011;9921;47.186;9.778;2022-09-03T02:47:49;0.00;;;0.00;;
19551;SDS011;9921;47.186;9.778;2022-09-03T02:50:20;0.00;;;0.00;;
19551;SDS011;9921;47.186;9.778;2022-09-03T02:52:47;0.00;;;0.00;;
19551;SDS011;9921;47.186;9.778;2022-09-03T02:55:14;0.00;;;0.00;;
19551;SDS011;9921;47.186;9.778;2022-09-03T02:57:42;0.00;;;0.00;;
19551;SDS011;9921;47.186;9.778;2022-09-03T03:00:10;0.00;;;0.00;;
19551;SDS011;9921;47.186;9.778;2022-09-03T03:02:37;0.00;;;0.00;;
19551;SDS011;9921;47.186;9.778;2022-09-03T03:05:06;0.00;;;0.00;;
19551;SDS011;9921;47.186;9.778;2022-09-03T03:07:36;0.00;;;0.00;;
19551;SDS011;9921;47.186;9.778;2022-09-03T03:10:06;0.00;;;0.00;;
19551;SDS011;9921;47.186;9.778;2022-09-03T03:12:33;0.00;;;0.00;;
19551;SDS011;9921;47.186;9.778;2022-09-03T03:15:01;0.00;;;0.00;;
19551;SDS011;9921;47.186;9.778;2022-09-03T03:17:28;0.00;;;0.00;;
19551;SDS011;9921;47.186;9.778;2022-09-03T03:19:55;0.00;;;0.00;;
19551;SDS011;9921;47.186;9.778;2022-09-03T03:22:22;0.00;;;0.00;;
19551;SDS011;9921;47.186;9.778;2022-09-03T03:24:50;0.00;;;0.00;;
19551;SDS011;9921;47.186;9.778;2022-09-03T03:27:17;0.00;;;0.00;;
19551;SDS011;9921;47.186;9.778;2022-09-03T03:29:44;0.00;;;0.00;;
19551;SDS011;9921;47.186;9.778;2022-09-03T03:32:11;0.00;;;0.00;;
19551;SDS011;9921;47.186;9.778;2022-09-03T03:34:37;0.00;;;0.00;;
19551;SDS011;9921;47.186;9.778;2022-09-03T03:37:05;0.00;;;0.00;;
19551;SDS011;9921;47.186;9.778;2022-09-03T03:39:31;0.00;;;0.00;;
19551;SDS011;9921;47.186;9.778;2022-09-03T03:42:00;0.00;;;0.00;;
19551;SDS011;9921;47.186;9.778;2022-09-03T03:44:26;0.00;;;0.00;;
19551;SDS011;9921;47.186;9.778;2022-09-03T03:46:53;0.00;;;0.00;;
19551;SDS011;9921;47.186;9.778;2022-09-03T03:49:20;0.00;;;0.00;;
19551;SDS011;9921;47.186;9.778;2022-09-03T03:51:47;0.00;;;0.00;;
19551;SDS011;9921;47.186;9.778;2022-09-03T03:54:14;0.00;;;0.00;;
19551;SDS011;9921;47.186;9.778;2022-09-03T03:56:41;0.00;;;0.00;;
19551;SDS011;9921;47.186;9.778;2022-09-03T03:59:09;0.00;;;0.00;;
19551;SDS011;9921;47.186;9.778;2022-09-03T04:01:36;0.00;;;0.00;;
19551;SDS011;9921;47.186;9.778;2022-09-03T04:04:03;0.00;;;0.00;;
19551;SDS011;9921;47.186;9.778;2022-09-03T04:06:30;0.00;;;0.00;;
19551;SDS011;9921;47.186;9.778;2022-09-03T04:08:57;0.00;;;0.00;;
19551;SDS011;9921;47.186;9.778;2022-09-03T04:11:24;0.00;;;0.00;;
19551;SDS011;9921;47.186;9.778;2022-09-03T04:13:51;0.00;;;0.00;;
19551;SDS011;9921;47.186;9.778;2022-09-03T04:16:20;0.00;;;0.00;;
19551;SDS011;9921;47.186;9.778;2022-09-03T04:18:48;0.00;;;0.00;;
19551;SDS011;9921;47.186;9.778;2022-09-03T04:21:16;0.00;;;0.00;;
19551;SDS011;9921;47.186;9.778;2022-09-03T04:23:44;0.00;;;0.00;;
19551;SDS011;9921;47.186;9.778;2022-09-03T04:26:13;0.00;;;0.00;;
19551;SDS011;9921;47.186;9.778;2022-09-03T04:28:42;0.00;;;0.00;;
19551;SDS011;9921;47.186;9.778;2022-09-03T04:31:10;0.00;;;0.00;;
19551;SDS011;9921;47.186;9.778;2022-09-03T04:33:39;0.00;;;0.00;;
19551;SDS011;9921;47.186;9.778;2022-09-03T04:36:07;0.00;;;0.00;;
19551;SDS011;9921;47.186;9.778;2022-09-03T04:38:36;0.00;;;0.00;;
19551;SDS011;9921;47.186;9.778;2022-09-03T04:41:05;0.00;;;0.00;;
19551;SDS011;9921;47.186;9.778;2022-09-03T04:43:33;0.00;;;0.00;;
19551;SDS011;9921;47.186;9.778;2022-09-03T04:46:01;0.00;;;0.00;;
19551;SDS011;9921;47.186;9.778;2022-09-03T04:48:30;0.00;;;0.00;;
19551;SDS011;9921;47.186;9.778;2022-09-03T04:51:02;0.00;;;0.00;;
19551;SDS011;9921;47.186;9.778;2022-09-03T04:53:31;0.00;;;0.00;;
19551;SDS011;9921;47.186;9.778;2022-09-03T04:55:58;0.00;;;0.00;;
19551;SDS011;9921;47.186;9.778;2022-09-03T04:58:25;0.00;;;0.00;;
19551;SDS011;9921;47.186;9.778;2022-09-03T05:00:52;0.00;;;0.00;;
19551;SDS011;9921;47.186;9.778;2022-09-03T05:03:19;0.00;;;0.00;;
19551;SDS011;9921;47.186;9.778;2022-09-03T05:05:50;0.00;;;0.00;;
19551;SDS011;9921;47.186;9.778;2022-09-03T05:08:20;0.00;;;0.00;;
19551;SDS011;9921;47.186;9.778;2022-09-03T05:10:47;0.00;;;0.00;;
19551;SDS011;9921;47.186;9.778;2022-09-03T05:13:14;0.00;;;0.00;;
19551;SDS011;9921;47.186;9.778;2022-09-03T05:15:41;0.00;;;0.00;;
19551;SDS011;9921;47.186;9.778;2022-09-03T05:18:09;0.00;;;0.00;;
19551;SDS011;9921;47.186;9.778;2022-09-03T05:20:37;0.00;;;0.00;;
19551;SDS011;9921;47.186;9.778;2022-09-03T05:23:04;0.00;;;0.00;;
19551;SDS011;9921;47.186;9.778;2022-09-03T05:25:32;0.00;;;0.00;;
19551;SDS011;9921;47.186;9.778;2022-09-03T05:28:02;0.00;;;0.00;;
19551;SDS011;9921;47.186;9.778;2022-09-03T05:30:29;0.00;;;0.00;;
19551;SDS011;9921;47.186;9.778;2022-09-03T05:32:56;0.00;;;0.00;;
19551;SDS011;9921;47.186;9.778;2022-09-03T05:35:23;0.00;;;0.00;;
19551;SDS011;9921;47.186;9.778;2022-09-03T05:37:50;0.00;;;0.00;;
19551;SDS011;9921;47.186;9.778;2022-09-03T05:40:20;0.00;;;0.00;;
19551;SDS011;9921;47.186;9.778;2022-09-03T05:42:48;0.00;;;0.00;;
19551;SDS011;9921;47.186;9.778;2022-09-03T05:45:21;0.00;;;0.00;;
19551;SDS011;9921;47.186;9.778;2022-09-03T05:47:48;0.00;;;0.00;;
19551;SDS011;9921;47.186;9.778;2022-09-03T05:50:15;0.00;;;0.00;;
19551;SDS011;9921;47.186;9.778;2022-09-03T05:52:42;0.00;;;0.00;;
19551;SDS011;9921;47.186;9.778;2022-09-03T05:55:09;0.00;;;0.00;;
19551;SDS011;9921;47.186;9.778;2022-09-03T05:57:36;0.00;;;0.00;;
19551;SDS011;9921;47.186;9.778;2022-09-03T06:00:05;0.00;;;0.00;;
19551;SDS011;9921;47.186;9.778;2022-09-03T06:02:33;0.00;;;0.00;;
19551;SDS011;9921;47.186;9.778;2022-09-03T06:05:00;0.00;;;0.00;;
19551;SDS011;9921;47.186;9.778;2022-09-03T06:07:27;0.00;;;0.00;;
19551;SDS011;9921;47.186;9.778;2022-09-03T06:09:54;0.00;;;0.00;;
19551;SDS011;9921;47.186;9.778;2022-09-03T06:12:20;0.00;;;0.00;;
19551;SDS011;9921;47.186;9.778;2022-09-03T06:14:47;0.00;;;0.00;;
19551;SDS011;9921;47.186;9.778;2022-09-03T06:17:15;0.00;;;0.00;;
19551;SDS011;9921;47.186;9.778;2022-09-03T06:19:42;0.00;;;0.00;;
19551;SDS011;9921;47.186;9.778;2022-09-03T06:22:09;0.00;;;0.00;;
19551;SDS011;9921;47.186;9.778;2022-09-03T06:24:36;0.00;;;0.00;;
19551;SDS011;9921;47.186;9.778;2022-09-03T06:27:03;0.00;;;0.00;;
19551;SDS011;9921;47.186;9.778;2022-09-03T06:29:30;0.00;;;0.00;;
19551;SDS011;9921;47.186;9.778;2022-09-03T06:31:57;0.00;;;0.00;;
19551;SDS011;9921;47.186;9.778;2022-09-03T06:34:28;0.00;;;0.00;;
19551;SDS011;9921;47.186;9.778;2022-09-03T06:36:55;0.00;;;0.00;;
19551;SDS011;9921;47.186;9.778;2022-09-03T06:39:23;0.00;;;0.00;;
19551;SDS011;9921;47.186;9.778;2022-09-03T06:41:51;0.00;;;0.00;;
19551;SDS011;9921;47.186;9.778;2022-09-03T06:44:19;0.00;;;0.00;;
19551;SDS011;9921;47.186;9.778;2022-09-03T06:46:46;0.00;;;0.00;;
19551;SDS011;9921;47.186;9.778;2022-09-03T06:49:13;0.00;;;0.00;;
19551;SDS011;9921;47.186;9.778;2022-09-03T06:51:41;0.00;;;0.00;;
19551;SDS011;9921;47.186;9.778;2022-09-03T06:54:09;0.00;;;0.00;;
19551;SDS011;9921;47.186;9.778;2022-09-03T06:56:38;0.00;;;0.00;;
19551;SDS011;9921;47.186;9.778;2022-09-03T06:59:06;0.00;;;0.00;;
19551;SDS011;9921;47.186;9.778;2022-09-03T07:01:34;0.00;;;0.00;;
19551;SDS011;9921;47.186;9.778;2022-09-03T07:04:04;0.00;;;0.00;;
19551;SDS011;9921;47.186;9.778;2022-09-03T07:06:32;0.00;;;0.00;;
19551;SDS011;9921;47.186;9.778;2022-09-03T07:09:04;0.00;;;0.00;;
19551;SDS011;9921;47.186;9.778;2022-09-03T07:11:31;0.00;;;0.00;;
19551;SDS011;9921;47.186;9.778;2022-09-03T07:14:00;0.00;;;0.00;;
19551;SDS011;9921;47.186;9.778;2022-09-03T07:16:28;0.00;;;0.00;;
19551;SDS011;9921;47.186;9.778;2022-09-03T07:18:56;0.00;;;0.00;;
19551;SDS011;9921;47.186;9.778;2022-09-03T07:21:25;0.00;;;0.00;;
19551;SDS011;9921;47.186;9.778;2022-09-03T07:23:54;0.00;;;0.00;;
19551;SDS011;9921;47.186;9.778;2022-09-03T07:26:24;0.00;;;0.00;;
19551;SDS011;9921;47.186;9.778;2022-09-03T07:28:52;0.00;;;0.00;;
19551;SDS011;9921;47.186;9.778;2022-09-03T07:31:20;0.00;;;0.00;;
19551;SDS011;9921;47.186;9.778;2022-09-03T07:33:49;0.00;;;0.00;;
19551;SDS011;9921;47.186;9.778;2022-09-03T07:36:19;0.00;;;0.00;;
19551;SDS011;9921;47.186;9.778;2022-09-03T07:38:47;0.00;;;0.00;;
19551;SDS011;9921;47.186;9.778;2022-09-03T07:41:14;0.00;;;0.00;;
19551;SDS011;9921;47.186;9.778;2022-09-03T07:43:43;0.00;;;0.00;;
19551;SDS011;9921;47.186;9.778;2022-09-03T07:46:11;0.00;;;0.00;;
19551;SDS011;9921;47.186;9.778;2022-09-03T07:48:39;0.00;;;0.00;;
19551;SDS011;9921;47.186;9.778;2022-09-03T07:51:07;0.00;;;0.00;;
19551;SDS011;9921;47.186;9.778;2022-09-03T07:53:34;0.00;;;0.00;;
19551;SDS011;9921;47.186;9.778;2022-09-03T07:56:02;0.00;;;0.00;;
19551;SDS011;9921;47.186;9.778;2022-09-03T07:58:30;0.00;;;0.00;;
19551;SDS011;9921;47.186;9.778;2022-09-03T08:01:02;0.00;;;0.00;;
19551;SDS011;9921;47.186;9.778;2022-09-03T08:03:30;0.00;;;0.00;;
19551;SDS011;9921;47.186;9.778;2022-09-03T08:05:59;0.00;;;0.00;;
19551;SDS011;9921;47.186;9.778;2022-09-03T08:08:27;0.00;;;0.00;;
19551;SDS011;9921;47.186;9.778;2022-09-03T08:10:54;0.00;;;0.00;;
19551;SDS011;9921;47.186;9.778;2022-09-03T08:13:28;0.00;;;0.00;;
19551;SDS011;9921;47.186;9.778;2022-09-03T08:15:55;0.00;;;0.00;;
19551;SDS011;9921;47.186;9.778;2022-09-03T08:18:25;0.00;;;0.00;;
19551;SDS011;9921;47.186;9.778;2022-09-03T08:21:02;0.00;;;0.00;;
19551;SDS011;9921;47.186;9.778;2022-09-03T08:23:31;0.00;;;0.00;;
19551;SDS011;9921;47.186;9.778;2022-09-03T08:25:58;0.00;;;0.00;;
19551;SDS011;9921;47.186;9.778;2022-09-03T08:28:25;0.03;;;0.03;;
19551;SDS011;9921;47.186;9.778;2022-09-03T08:30:52;0.00;;;0.00;;
19551;SDS011;9921;47.186;9.778;2022-09-03T08:33:19;0.10;;;0.10;;
19551;SDS011;9921;47.186;9.778;2022-09-03T08:36:02;0.03;;;0.03;;
19551;SDS011;9921;47.186;9.778;2022-09-03T08:38:30;0.10;;;0.10;;
19551;SDS011;9921;47.186;9.778;2022-09-03T08:41:02;0.10;;;0.10;;
19551;SDS011;9921;47.186;9.778;2022-09-03T08:43:32;0.00;;;0.00;;
19551;SDS011;9921;47.186;9.778;2022-09-03T08:46:22;0.10;;;0.10;;
19551;SDS011;9921;47.186;9.778;2022-09-03T08:48:57;0.00;;;0.00;;
19551;SDS011;9921;47.186;9.778;2022-09-03T08:51:27;0.00;;;0.00;;
19551;SDS011;9921;47.186;9.778;2022-09-03T08:53:54;0.10;;;0.10;;
19551;SDS011;9921;47.186;9.778;2022-09-03T08:56:23;0.10;;;0.10;;
19551;SDS011;9921;47.186;9.778;2022-09-03T08:58:52;0.10;;;0.10;;
19551;SDS011;9921;47.186;9.778;2022-09-03T09:01:24;0.17;;;0.17;;
19551;SDS011;9921;47.186;9.778;2022-09-03T09:04:01;0.15;;;0.15;;
19551;SDS011;9921;47.186;9.778;2022-09-03T09:06:38;0.10;;;0.10;;
19551;SDS011;9921;47.186;9.778;2022-09-03T09:09:14;0.20;;;0.20;;
19551;SDS011;9921;47.186;9.778;2022-09-03T09:11:52;0.10;;;0.10;;
19551;SDS011;9921;47.186;9.778;2022-09-03T09:14:32;0.10;;;0.10;;
19551;SDS011;9921;47.186;9.778;2022-09-03T09:17:04;0.15;;;0.15;;
19551;SDS011;9921;47.186;9.778;2022-09-03T09:19:45;0.10;;;0.10;;
19551;SDS011;9921;47.186;9.778;2022-09-03T09:22:25;0.20;;;0.20;;
19551;SDS011;9921;47.186;9.778;2022-09-03T09:24:56;0.20;;;0.20;;
19551;SDS011;9921;47.186;9.778;2022-09-03T09:27:27;0.20;;;0.20;;
19551;SDS011;9921;47.186;9.778;2022-09-03T09:29:54;0.20;;;0.20;;
19551;SDS011;9921;47.186;9.778;2022-09-03T09:32:26;0.20;;;0.20;;
19551;SDS011;9921;47.186;9.778;2022-09-03T09:34:56;0.20;;;0.20;;
19551;SDS011;9921;47.186;9.778;2022-09-03T09:37:22;0.20;;;0.20;;
19551;SDS011;9921;47.186;9.778;2022-09-03T09:39:55;0.20;;;0.20;;
19551;SDS011;9921;47.186;9.778;2022-09-03T09:42:23;0.20;;;0.20;;
19551;SDS011;9921;47.186;9.778;2022-09-03T09:44:51;0.20;;;0.20;;
19551;SDS011;9921;47.186;9.778;2022-09-03T09:47:22;0.20;;;0.20;;
19551;SDS011;9921;47.186;9.778;2022-09-03T09:49:53;0.20;;;0.20;;
19551;SDS011;9921;47.186;9.778;2022-09-03T09:52:22;0.20;;;0.20;;
19551;SDS011;9921;47.186;9.778;2022-09-03T09:55:04;0.20;;;0.20;;
19551;SDS011;9921;47.186;9.778;2022-09-03T09:57:34;0.20;;;0.20;;
19551;SDS011;9921;47.186;9.778;2022-09-03T10:00:03;0.20;;;0.20;;
19551;SDS011;9921;47.186;9.778;2022-09-03T10:02:33;0.20;;;0.20;;
19551;SDS011;9921;47.186;9.778;2022-09-03T10:05:11;0.20;;;0.20;;
19551;SDS011;9921;47.186;9.778;2022-09-03T10:07:41;0.22;;;0.22;;
19551;SDS011;9921;47.186;9.778;2022-09-03T10:10:13;0.20;;;0.20;;
19551;SDS011;9921;47.186;9.778;2022-09-03T10:12:43;0.22;;;0.22;;
19551;SDS011;9921;47.186;9.778;2022-09-03T10:15:19;0.30;;;0.30;;
19551;SDS011;9921;47.186;9.778;2022-09-03T10:18:01;0.30;;;0.30;;
19551;SDS011;9921;47.186;9.778;2022-09-03T10:20:35;0.30;;;0.30;;
19551;SDS011;9921;47.186;9.778;2022-09-03T10:23:14;0.30;;;0.30;;
19551;SDS011;9921;47.186;9.778;2022-09-03T10:25:51;0.20;;;0.20;;
19551;SDS011;9921;47.186;9.778;2022-09-03T10:28:28;0.20;;;0.20;;
19551;SDS011;9921;47.186;9.778;2022-09-03T10:31:03;0.20;;;0.20;;
19551;SDS011;9921;47.186;9.778;2022-09-03T10:33:40;0.20;;;0.20;;
19551;SDS011;9921;47.186;9.778;2022-09-03T10:36:14;0.20;;;0.20;;
19551;SDS011;9921;47.186;9.778;2022-09-03T10:38:45;0.13;;;0.13;;
19551;SDS011;9921;47.186;9.778;2022-09-03T10:41:21;0.20;;;0.20;;
19551;SDS011;9921;47.186;9.778;2022-09-03T10:44:10;0.10;;;0.10;;
19551;SDS011;9921;47.186;9.778;2022-09-03T10:47:01;0.20;;;0.20;;
19551;SDS011;9921;47.186;9.778;2022-09-03T10:49:42;0.10;;;0.10;;
19551;SDS011;9921;47.186;9.778;2022-09-03T10:52:16;0.20;;;0.20;;
19551;SDS011;9921;47.186;9.778;2022-09-03T10:54:57;0.13;;;0.13;;
19551;SDS011;9921;47.186;9.778;2022-09-03T10:57:44;0.20;;;0.20;;
19551;SDS011;9921;47.186;9.778;2022-09-03T11:00:16;0.20;;;0.20;;
19551;SDS011;9921;47.186;9.778;2022-09-03T11:05:38;0.20;;;0.20;;
19551;SDS011;9921;47.186;9.778;2022-09-03T11:08:10;0.10;;;0.10;;
19551;SDS011;9921;47.186;9.778;2022-09-03T11:10:44;0.20;;;0.20;;
19551;SDS011;9921;47.186;9.778;2022-09-03T11:13:16;0.20;;;0.20;;
19551;SDS011;9921;47.186;9.778;2022-09-03T11:15:48;0.20;;;0.20;;
19551;SDS011;9921;47.186;9.778;2022-09-03T11:18:18;0.20;;;0.20;;
19551;SDS011;9921;47.186;9.778;2022-09-03T11:20:49;0.20;;;0.20;;
19551;SDS011;9921;47.186;9.778;2022-09-03T11:23:19;0.10;;;0.10;;
19551;SDS011;9921;47.186;9.778;2022-09-03T11:25:49;0.10;;;0.10;;
19551;SDS011;9921;47.186;9.778;2022-09-03T11:28:22;0.17;;;0.17;;
19551;SDS011;9921;47.186;9.778;2022-09-03T11:31:02;0.10;;;0.10;;
19551;SDS011;9921;47.186;9.778;2022-09-03T11:33:38;0.13;;;0.13;;
19551;SDS011;9921;47.186;9.778;2022-09-03T11:36:10;0.10;;;0.10;;
19551;SDS011;9921;47.186;9.778;2022-09-03T11:38:37;0.10;;;0.10;;
19551;SDS011;9921;47.186;9.778;2022-09-03T11:41:11;0.10;;;0.10;;
19551;SDS011;9921;47.186;9.778;2022-09-03T11:43:40;0.13;;;0.13;;
19551;SDS011;9921;47.186;9.778;2022-09-03T11:46:09;0.10;;;0.10;;
19551;SDS011;9921;47.186;9.778;2022-09-03T11:48:40;0.10;;;0.10;;
19551;SDS011;9921;47.186;9.778;2022-09-03T11:51:19;0.10;;;0.10;;
19551;SDS011;9921;47.186;9.778;2022-09-03T11:53:55;0.10;;;0.10;;
19551;SDS011;9921;47.186;9.778;2022-09-03T11:56:24;0.10;;;0.10;;
19551;SDS011;9921;47.186;9.778;2022-09-03T11:58:59;0.10;;;0.10;;
19551;SDS011;9921;47.186;9.778;2022-09-03T12:01:29;0.10;;;0.10;;
19551;SDS011;9921;47.186;9.778;2022-09-03T12:04:00;0.10;;;0.10;;
19551;SDS011;9921;47.186;9.778;2022-09-03T12:09:33;0.08;;;0.08;;
19551;SDS011;9921;47.186;9.778;2022-09-03T12:12:13;0.03;;;0.03;;
19551;SDS011;9921;47.186;9.778;2022-09-03T12:14:53;0.00;;;0.00;;
19551;SDS011;9921;47.186;9.778;2022-09-03T12:17:29;0.00;;;0.00;;
19551;SDS011;9921;47.186;9.778;2022-09-03T12:20:01;0.00;;;0.00;;
19551;SDS011;9921;47.186;9.778;2022-09-03T12:22:28;0.00;;;0.00;;
19551;SDS011;9921;47.186;9.778;2022-09-03T12:25:06;0.00;;;0.00;;
19551;SDS011;9921;47.186;9.778;2022-09-03T12:27:36;0.00;;;0.00;;
19551;SDS011;9921;47.186;9.778;2022-09-03T12:30:04;0.10;;;0.10;;
19551;SDS011;9921;47.186;9.778;2022-09-03T12:32:41;0.03;;;0.03;;
19551;SDS011;9921;47.186;9.778;2022-09-03T12:35:10;0.10;;;0.10;;
19551;SDS011;9921;47.186;9.778;2022-09-03T12:37:38;0.00;;;0.00;;
19551;SDS011;9921;47.186;9.778;2022-09-03T12:40:14;0.00;;;0.00;;
19551;SDS011;9921;47.186;9.778;2022-09-03T12:42:45;0.03;;;0.03;;
19551;SDS011;9921;47.186;9.778;2022-09-03T12:45:13;0.00;;;0.00;;
19551;SDS011;9921;47.186;9.778;2022-09-03T12:47:43;0.00;;;0.00;;
19551;SDS011;9921;47.186;9.778;2022-09-03T12:50:11;0.00;;;0.00;;
19551;SDS011;9921;47.186;9.778;2022-09-03T12:52:39;0.00;;;0.00;;
19551;SDS011;9921;47.186;9.778;2022-09-03T12:55:13;0.00;;;0.00;;
19551;SDS011;9921;47.186;9.778;2022-09-03T12:57:51;0.03;;;0.03;;
19551;SDS011;9921;47.186;9.778;2022-09-03T13:00:22;0.00;;;0.00;;
19551;SDS011;9921;47.186;9.778;2022-09-03T13:02:50;0.00;;;0.00;;
19551;SDS011;9921;47.186;9.778;2022-09-03T13:05:21;0.00;;;0.00;;
19551;SDS011;9921;47.186;9.778;2022-09-03T13:07:55;0.00;;;0.00;;
19551;SDS011;9921;47.186;9.778;2022-09-03T13:10:25;0.00;;;0.00;;
19551;SDS011;9921;47.186;9.778;2022-09-03T13:12:58;0.00;;;0.00;;
19551;SDS011;9921;47.186;9.778;2022-09-03T13:15:27;0.00;;;0.00;;
19551;SDS011;9921;47.186;9.778;2022-09-03T13:18:04;0.10;;;0.10;;
19551;SDS011;9921;47.186;9.778;2022-09-03T13:20:41;0.00;;;0.00;;
19551;SDS011;9921;47.186;9.778;2022-09-03T13:23:30;0.00;;;0.00;;
19551;SDS011;9921;47.186;9.778;2022-09-03T13:26:05;0.00;;;0.00;;
19551;SDS011;9921;47.186;9.778;2022-09-03T13:28:46;0.00;;;0.00;;
19551;SDS011;9921;47.186;9.778;2022-09-03T13:31:28;0.00;;;0.00;;
19551;SDS011;9921;47.186;9.778;2022-09-03T13:34:00;0.00;;;0.00;;
19551;SDS011;9921;47.186;9.778;2022-09-03T13:36:35;0.00;;;0.00;;
19551;SDS011;9921;47.186;9.778;2022-09-03T13:39:15;0.00;;;0.00;;
19551;SDS011;9921;47.186;9.778;2022-09-03T13:41:47;0.00;;;0.00;;
19551;SDS011;9921;47.186;9.778;2022-09-03T13:44:23;0.10;;;0.10;;
19551;SDS011;9921;47.186;9.778;2022-09-03T13:47:00;0.05;;;0.05;;
19551;SDS011;9921;47.186;9.778;2022-09-03T13:49:34;0.00;;;0.00;;
19551;SDS011;9921;47.186;9.778;2022-09-03T13:52:24;0.00;;;0.00;;
19551;SDS011;9921;47.186;9.778;2022-09-03T13:54:59;0.00;;;0.00;;
19551;SDS011;9921;47.186;9.778;2022-09-03T13:57:36;0.00;;;0.00;;
19551;SDS011;9921;47.186;9.778;2022-09-03T14:00:13;0.00;;;0.00;;
19551;SDS011;9921;47.186;9.778;2022-09-03T14:02:50;0.00;;;0.00;;
19551;SDS011;9921;47.186;9.778;2022-09-03T14:05:24;0.00;;;0.00;;
19551;SDS011;9921;47.186;9.778;2022-09-03T14:08:03;0.00;;;0.00;;
19551;SDS011;9921;47.186;9.778;2022-09-03T14:10:43;0.00;;;0.00;;
19551;SDS011;9921;47.186;9.778;2022-09-03T14:13:19;0.00;;;0.00;;
19551;SDS011;9921;47.186;9.778;2022-09-03T14:15:57;0.00;;;0.00;;
19551;SDS011;9921;47.186;9.778;2022-09-03T14:18:33;0.00;;;0.00;;
19551;SDS011;9921;47.186;9.778;2022-09-03T14:21:07;0.00;;;0.00;;
19551;SDS011;9921;47.186;9.778;2022-09-03T14:23:42;0.00;;;0.00;;
19551;SDS011;9921;47.186;9.778;2022-09-03T14:26:17;0.00;;;0.00;;
19551;SDS011;9921;47.186;9.778;2022-09-03T14:28:57;0.00;;;0.00;;
19551;SDS011;9921;47.186;9.778;2022-09-03T14:31:29;0.10;;;0.10;;
19551;SDS011;9921;47.186;9.778;2022-09-03T14:34:17;0.00;;;0.00;;
19551;SDS011;9921;47.186;9.778;2022-09-03T14:36:57;0.00;;;0.00;;
19551;SDS011;9921;47.186;9.778;2022-09-03T14:39:32;0.00;;;0.00;;
19551;SDS011;9921;47.186;9.778;2022-09-03T14:42:17;0.00;;;0.00;;
19551;SDS011;9921;47.186;9.778;2022-09-03T14:45:15;0.00;;;0.00;;
19551;SDS011;9921;47.186;9.778;2022-09-03T14:48:06;0.00;;;0.00;;
19551;SDS011;9921;47.186;9.778;2022-09-03T14:50:49;0.00;;;0.00;;
19551;SDS011;9921;47.186;9.778;2022-09-03T14:53:40;0.00;;;0.00;;
19551;SDS011;9921;47.186;9.778;2022-09-03T14:56:24;0.00;;;0.00;;
19551;SDS011;9921;47.186;9.778;2022-09-03T14:59:01;0.00;;;0.00;;
19551;SDS011;9921;47.186;9.778;2022-09-03T15:01:37;0.00;;;0.00;;
19551;SDS011;9921;47.186;9.778;2022-09-03T15:07:23;0.00;;;0.00;;
19551;SDS011;9921;47.186;9.778;2022-09-03T15:10:01;0.00;;;0.00;;
19551;SDS011;9921;47.186;9.778;2022-09-03T15:12:34;0.00;;;0.00;;
19551;SDS011;9921;47.186;9.778;2022-09-03T15:15:07;0.00;;;0.00;;
19551;SDS011;9921;47.186;9.778;2022-09-03T15:17:42;0.00;;;0.00;;
19551;SDS011;9921;47.186;9.778;2022-09-03T15:20:19;0.00;;;0.00;;
19551;SDS011;9921;47.186;9.778;2022-09-03T15:23:03;0.00;;;0.00;;
19551;SDS011;9921;47.186;9.778;2022-09-03T15:25:53;0.00;;;0.00;;
19551;SDS011;9921;47.186;9.778;2022-09-03T15:28:44;0.00;;;0.00;;
19551;SDS011;9921;47.186;9.778;2022-09-03T15:31:23;0.00;;;0.00;;
19551;SDS011;9921;47.186;9.778;2022-09-03T15:34:00;0.00;;;0.00;;
19551;SDS011;9921;47.186;9.778;2022-09-03T15:36:39;0.00;;;0.00;;
19551;SDS011;9921;47.186;9.778;2022-09-03T15:39:09;0.00;;;0.00;;
19551;SDS011;9921;47.186;9.778;2022-09-03T15:41:43;0.00;;;0.00;;
19551;SDS011;9921;47.186;9.778;2022-09-03T15:44:15;0.00;;;0.00;;